createdAt,value
2023-01-20T00:14:41.936Z,11.27
2023-01-20T00:29:31.368Z,10.84
2023-01-20T00:44:26.105Z,11.23
2023-01-20T00:59:10.911Z,10.58
2023-01-20T01:14:00.941Z,9.98
2023-01-20T01:28:50.736Z,10.01
2023-01-20T01:43:40.513Z,9.67
2023-01-20T01:58:35.002Z,10.21
2023-01-20T02:13:30.222Z,8.97
2023-01-20T02:28:37.722Z,8.34
2023-01-20T03:13:55.777Z,9.40
2023-01-20T03:28:50.561Z,8.06
2023-01-20T03:43:39.968Z,7.18
2023-01-20T03:58:29.907Z,7.72
2023-01-20T04:13:21.159Z,6.78
2023-01-20T04:28:10.671Z,6.77
2023-01-20T04:43:00.819Z,7.28
2023-01-20T04:57:50.352Z,7.62
2023-01-20T05:12:39.501Z,7.17
2023-01-20T05:27:29.387Z,7.43
2023-01-20T05:42:19.053Z,6.22
2023-01-20T05:57:08.730Z,7.39
2023-01-20T06:11:57.899Z,8.58
2023-01-20T06:26:47.787Z,8.02
2023-01-20T06:41:38.096Z,6.92
2023-01-20T06:56:28.427Z,6.38
2023-01-20T07:11:17.606Z,6.64
2023-01-20T07:26:07.460Z,6.59
2023-01-20T07:40:59.051Z,6.63
2023-01-20T07:55:53.891Z,6.63
2023-01-20T08:10:45.422Z,6.86
2023-01-20T08:25:35.785Z,5.80
2023-01-20T08:40:26.280Z,7.60
2023-01-20T08:55:17.299Z,9.20
2023-01-20T09:10:07.770Z,9.72
2023-01-20T09:24:58.597Z,10.26
2023-01-20T09:40:07.229Z,9.82
2023-01-20T09:55:09.857Z,9.87
2023-01-20T10:10:22.779Z,10.80
2023-01-20T10:25:21.558Z,10.33
2023-01-20T10:40:17.465Z,10.99
2023-01-20T10:55:28.744Z,12.08
2023-01-20T11:10:26.799Z,12.13
2023-01-20T11:25:26.520Z,13.17
2023-01-20T11:40:22.882Z,12.53
2023-01-20T11:55:22.498Z,11.16
2023-01-20T12:10:21.298Z,11.40
2023-01-20T12:25:15.138Z,10.19
2023-01-20T12:40:14.203Z,10.63
2023-01-20T12:55:27.295Z,9.66
2023-01-20T13:10:38.538Z,7.21
2023-01-20T13:25:33.315Z,7.72
2023-01-20T13:40:33.982Z,6.27
2023-01-20T13:55:31.354Z,7.10
2023-01-20T14:10:23.973Z,6.93
2023-01-20T14:25:21.995Z,6.24
2023-01-20T14:40:14.931Z,6.58
2023-01-20T14:55:05.022Z,6.74
2023-01-20T15:10:04.542Z,6.17
2023-01-20T15:24:59.066Z,7.12
2023-01-20T15:39:48.861Z,6.92
2023-01-20T15:54:38.516Z,6.44
2023-01-20T16:09:27.570Z,6.08
2023-01-20T16:24:17.172Z,7.79
2023-01-20T16:39:07.022Z,5.51
2023-01-20T16:53:56.719Z,6.28
2023-01-20T17:08:47.257Z,4.86
2023-01-20T17:23:37.104Z,5.10
2023-01-20T17:38:26.613Z,5.36
2023-01-20T17:53:16.041Z,4.98
2023-01-20T18:08:11.146Z,5.16
2023-01-20T18:22:56.755Z,4.87
2023-01-20T18:37:47.647Z,5.56
2023-01-20T18:52:39.038Z,5.23
2023-01-20T19:07:31.649Z,5.92
2023-01-20T19:22:21.988Z,7.51
2023-01-20T19:37:12.325Z,7.97
2023-01-20T19:52:03.206Z,7.59
2023-01-20T20:06:53.846Z,8.49
2023-01-20T20:21:43.430Z,8.96
2023-01-20T20:36:32.588Z,8.60
2023-01-20T20:51:22.034Z,7.68
2023-01-20T21:06:11.917Z,6.98
2023-01-20T21:21:01.838Z,5.59
2023-01-20T21:35:52.231Z,6.32
2023-01-20T21:51:00.143Z,8.54
2023-01-20T22:05:56.212Z,8.39
2023-01-20T22:20:46.816Z,9.07
2023-01-20T22:35:36.812Z,9.02
2023-01-20T22:50:27.103Z,9.04
2023-01-20T23:05:17.431Z,8.21
2023-01-20T23:20:07.385Z,8.00
2023-01-20T23:34:58.260Z,7.53
2023-01-20T23:49:48.922Z,7.30
